Pagrindinis puslapis
METAR-TAF:

METAR-TAF

Oro uostai :

Lampangas, Tailandas

platuma: 18-17N, ilguma: 099-31E, Aukštis: 241 m

Dabartinis oras

Ataskaita buvo paskelbta 9 valandos ir 41 minutes, ne 12:00 UTC
Vėjas 2 kt nuo kintamojo kryptimis
Temperatūra 26°C
Drėgmė 89%
Slėgis 1008 hPa
Matomumas 10 km arba daugiau
Su prošvaistėmis ne aukštis 2500 ft

METAR: VTCL 251200Z VRB02KT 9999 BKN025 26/24 Q1008 NOSIG

Laikas: 04:41 (21:41 UTC)

Prognozė

Ataskaita buvo paskelbta 4 valandos ir 41 minutes, ne 17:00 UTC
Prognozė galioja nuo 25 metu 18 UTC su 26 metu 18 UTC
Vėjas 5 kt iš Pietvakarių
Matomumas 10 km arba daugiau
Išsisklaidę debesys ne aukštis 2500 ft

TAF: VTCL 251700Z 2518/2618 22005KT 9999 SCT025

Orai ataskaitas ir orų prognozės (METAR, TAF).

turimą stotys yra geltonos ir raudonos taškus žemėlapyje.

Perkelti pele per norėdami pamatyti stoties vardą.

Tada spustelėkite, norėdami matyti oro stebėjimo ir prognozės.

Norėdami pakeisti žemėlapį: spustelėkite ant žalios mygtukų su juodo kryžiaus žemyn,; žalią mygtuką su brūkšneliu, jei norite nutolinti; arba žalių rodyklių gretimoms žemėlapius.


METAR-TAF: